Item Display Status Serial CT Sensor

Mooring Depth: 1 m

 

Deployed Sensor

  • Serial Number: 12915
  • NDBC Property Number: 39261
  • Start Date: 8/11/2018 (11:49:27 Z)
  • End Date: 10/5/2020 (09:55:00 Z)
Water Temperature [°C]     6 entries per hour
Showing data from 8/14/2019 (02:10:00 Z) to 8/13/2019 (00:00:01 Z)
Previous Next [ Day | 3-Days | 7-Days ]
First Last
Prev [ Day | 3-Days | 7-Days ] Next
First Last

Start Time:     :
End Time:     :     
Time (in GMT) :00 :50 :40 :30 :20 :10
Previous Next [ Day | 3-Days | 7-Days ]
First Last
Prev [ Day | 3-Days | 7-Days ] Next
First Last


123 => good data
MM => data is determined as missing
-- => data not received/configured
Back to Top Back to Top
8/14/2019 03:00 to 2:10 -- -- -- -- -- 29.938
8/14/2019 02:00 to 1:10 29.771 29.798 29.749 29.812 29.691 29.710
8/14/2019 01:00 to 0:10 29.707 29.695 29.676 29.701 29.639 29.658
8/14/2019 00:00 to 23:10 29.548 29.622 29.580 29.514 29.463 29.467
8/13/2019 23:00 to 22:10 29.433 29.404 29.373 29.349 29.342 29.330
8/13/2019 22:00 to 21:10 29.326 29.321 29.325 29.313 29.313 29.314
8/13/2019 21:00 to 20:10 29.309 29.314 29.315 29.310 29.303 29.298
8/13/2019 20:00 to 19:10 29.294 29.298 29.297 29.294 29.298 29.293
8/13/2019 19:00 to 18:10 29.291 29.294 29.294 29.294 29.283 29.287
8/13/2019 18:00 to 17:10 29.291 29.286 29.278 29.292 29.284 29.289
8/13/2019 17:00 to 16:10 29.276 29.289 29.288 29.295 29.296 29.311
8/13/2019 16:00 to 15:10 29.306 29.308 29.313 29.315 29.321 29.324
8/13/2019 15:00 to 14:10 29.318 29.326 29.323 29.329 29.332 29.331
8/13/2019 14:00 to 13:10 29.319 29.330 29.321 29.326 29.328 --
8/13/2019 13:00 to 12:10 29.335 29.337 29.329 29.341 29.336 29.340
8/13/2019 12:00 to 11:10 29.343 29.359 29.362 29.355 29.365 29.365
8/13/2019 11:00 to 10:10 29.360 29.363 29.359 29.363 29.367 29.369
8/13/2019 10:00 to 9:10 29.373 29.377 29.381 29.382 29.387 29.390
8/13/2019 09:00 to 8:10 29.392 29.395 29.409 29.420 29.426 29.423
8/13/2019 08:00 to 7:10 29.431 29.439 29.433 29.433 29.456 29.464
8/13/2019 07:00 to 6:10 29.486 29.507 29.504 29.529 29.545 29.566
8/13/2019 06:00 to 5:10 29.533 29.569 29.581 29.606 29.637 29.630
8/13/2019 05:00 to 4:10 29.626 29.695 29.692 29.702 29.753 29.772
8/13/2019 04:00 to 3:10 29.796 29.815 29.829 29.836 29.836 29.823
8/13/2019 03:00 to 2:10 29.781 29.826 29.767 29.826 29.798 29.704
8/13/2019 02:00 to 1:10 29.726 29.641 29.658 29.638 29.601 29.588
8/13/2019 01:00 to 0:10 29.540 29.492 29.452 29.415 29.407 29.408

 

 

 

Conductivity [S/m]     6 entries per hour
Showing data from 4/9/2019 (17:50:00 Z) to 4/8/2019 (00:00:01 Z)
Previous Next [ Day | 3-Days | 7-Days ]
First Last
Prev [ Day | 3-Days | 7-Days ] Next
First Last

Start Time:     :
End Time:     :     
Time (in GMT) :00 :50 :40 :30 :20 :10
Previous Next [ Day | 3-Days | 7-Days ]
First Last
Prev [ Day | 3-Days | 7-Days ] Next
First Last


123 => good data
MM => data is determined as missing
-- => data not received/configured
Back to Top Back to Top
4/9/2019 18:00 to 17:10 -- 5.59510 5.59536 5.59493 5.59607 5.59635
4/9/2019 17:00 to 16:10 5.59525 5.59552 5.59519 5.59541 5.59497 5.59567
4/9/2019 16:00 to 15:10 5.59641 5.59551 5.59604 5.59641 5.59600 5.59573
4/9/2019 15:00 to 14:10 5.59621 5.59512 5.59646 5.59618 5.59636 5.59614
4/9/2019 14:00 to 13:10 5.59534 5.59596 5.59597 5.59602 5.59602 5.59571
4/9/2019 13:00 to 12:10 5.59514 5.59510 5.59542 5.59623 5.59476 5.59556
4/9/2019 12:00 to 11:10 5.59465 5.59507 5.59492 5.59550 5.59562 5.59402
4/9/2019 11:00 to 10:10 5.59441 5.59515 5.59510 5.59424 5.59219 5.59398
4/9/2019 10:00 to 9:10 5.59431 5.59397 5.59322 5.59448 5.59442 5.59343
4/9/2019 09:00 to 8:10 5.59233 5.59389 5.59353 5.59457 5.59435 5.59209
4/9/2019 08:00 to 7:10 5.59326 5.59316 5.59377 5.59384 5.59381 5.59368
4/9/2019 07:00 to 6:10 5.59433 5.59348 5.59449 5.59423 5.59377 5.59530
4/9/2019 06:00 to 5:10 5.59608 5.59521 5.59557 5.59667 5.59725 5.59729
4/9/2019 05:00 to 4:10 5.59791 5.59724 5.59790 5.59873 5.59852 5.59864
4/9/2019 04:00 to 3:10 5.59858 5.59945 5.59942 5.60016 5.60037 5.60033
4/9/2019 03:00 to 2:10 5.59979 5.59901 5.59831 5.59899 5.59891 5.59821
4/9/2019 02:00 to 1:10 5.59901 5.59787 5.59731 5.59769 5.59689 5.59761
4/9/2019 01:00 to 0:10 5.59842 5.59763 5.59648 5.59746 5.59628 5.59375
4/9/2019 00:00 to 23:10 5.59515 5.59359 5.59427 5.59173 5.59234 5.59236
4/8/2019 23:00 to 22:10 5.59075 5.59032 5.58977 5.58975 5.58944 5.58874
4/8/2019 22:00 to 21:10 5.58788 5.58917 5.58846 5.58927 5.58942 5.58913
4/8/2019 21:00 to 20:10 5.58858 5.58858 5.58808 5.58732 5.58789 5.58764
4/8/2019 20:00 to 19:10 5.58755 5.58764 5.58736 5.58729 5.58704 5.58726
4/8/2019 19:00 to 18:10 5.58674 5.58736 5.58696 5.58657 5.58729 5.58662
4/8/2019 18:00 to 17:10 5.58693 5.58706 5.58738 5.58708 5.58767 5.58693
4/8/2019 17:00 to 16:10 5.58636 5.58782 5.58703 5.58786 5.58701 5.58671
4/8/2019 16:00 to 15:10 5.58730 5.58697 5.58701 5.58725 5.58725 5.58777
4/8/2019 15:00 to 14:10 5.58730 5.58721 5.58740 5.58708 5.58659 5.58783
4/8/2019 14:00 to 13:10 5.58768 5.58731 5.58794 5.58818 5.58777 5.58768
4/8/2019 13:00 to 12:10 5.58873 5.58840 5.58897 5.58831 5.58865 5.58905
4/8/2019 12:00 to 11:10 5.58929 5.58937 5.58890 5.58886 5.58914 5.58869
4/8/2019 11:00 to 10:10 5.58929 5.58876 5.58854 5.58933 5.58917 5.58831
4/8/2019 10:00 to 9:10 5.58908 5.58854 5.58784 5.58843 5.58925 5.58918
4/8/2019 09:00 to 8:10 5.58877 5.58947 5.58878 5.58883 5.58952 5.58972
4/8/2019 08:00 to 7:10 5.59026 5.58929 5.58977 5.59082 5.59056 5.59154
4/8/2019 07:00 to 6:10 5.59112 5.59110 5.59145 5.59217 5.59299 5.59292
4/8/2019 06:00 to 5:10 5.59231 5.59384 5.59362 5.59388 5.59493 5.59552
4/8/2019 05:00 to 4:10 5.59578 5.59681 5.59589 5.59686 5.59744 5.59655
4/8/2019 04:00 to 3:10 5.59715 5.59750 5.59689 5.59759 5.59826 5.59877
4/8/2019 03:00 to 2:10 5.60025 5.60069 5.60173 5.60216 5.60268 5.60351
4/8/2019 02:00 to 1:10 5.60463 5.60476 5.60485 5.60472 5.60551 5.60575
4/8/2019 01:00 to 0:10 5.60611 5.60579 5.60685 5.60524 5.60560 5.60493

 

 

 

Salinity [psu]     6 entries per hour
Showing data from 4/9/2019 (17:50:00 Z) to 4/8/2019 (00:00:01 Z)
Previous Next [ Day | 3-Days | 7-Days ]
First Last
Prev [ Day | 3-Days | 7-Days ] Next
First Last

Start Time:     :
End Time:     :     
Time (in GMT) :00 :50 :40 :30 :20 :10
Previous Next [ Day | 3-Days | 7-Days ]
First Last
Prev [ Day | 3-Days | 7-Days ] Next
First Last


123 => good data
MM => data is determined as missing
-- => data not received/configured
Back to Top Back to Top
4/9/2019 18:00 to 17:10 -- 34.95 34.95 34.95 34.95 34.95
4/9/2019 17:00 to 16:10 34.95 34.95 34.95 34.95 34.95 34.95
4/9/2019 16:00 to 15:10 34.95 34.95 34.95 34.95 34.95 34.95
4/9/2019 15:00 to 14:10 34.95 34.95 34.95 34.95 34.95 34.95
4/9/2019 14:00 to 13:10 34.95 34.95 34.95 34.95 34.95 34.95
4/9/2019 13:00 to 12:10 34.95 34.95 34.95 34.95 34.95 34.95
4/9/2019 12:00 to 11:10 34.94 34.95 34.95 34.95 34.94 34.94
4/9/2019 11:00 to 10:10 34.94 34.94 34.94 34.94 34.93 34.94
4/9/2019 10:00 to 9:10 34.94 34.94 34.94 34.94 34.94 34.94
4/9/2019 09:00 to 8:10 34.94 34.94 34.94 34.94 34.94 34.93
4/9/2019 08:00 to 7:10 -- -- 34.94 34.94 34.94 34.94
4/9/2019 07:00 to 6:10 34.94 34.94 34.94 34.94 34.94 34.94
4/9/2019 06:00 to 5:10 34.94 34.94 34.94 34.94 34.94 34.94
4/9/2019 05:00 to 4:10 34.94 34.94 34.94 34.94 -- 34.94
4/9/2019 04:00 to 3:10 34.94 34.94 34.94 34.94 34.94 34.94
4/9/2019 03:00 to 2:10 34.94 34.94 34.94 34.94 34.94 34.93
4/9/2019 02:00 to 1:10 34.94 34.93 34.93 34.93 34.93 34.93
4/9/2019 01:00 to 0:10 34.93 34.93 34.93 34.93 34.93 34.93
4/9/2019 00:00 to 23:10 34.93 34.93 34.93 34.92 34.93 34.93
4/8/2019 23:00 to 22:10 34.92 34.93 34.92 34.92 34.93 34.93
4/8/2019 22:00 to 21:10 34.92 34.93 34.93 34.93 34.93 34.93
4/8/2019 21:00 to 20:10 34.93 34.93 34.93 34.93 34.93 34.93
4/8/2019 20:00 to 19:10 34.93 34.93 34.93 34.93 34.93 34.93
4/8/2019 19:00 to 18:10 34.93 34.93 34.93 34.93 34.93 34.93
4/8/2019 18:00 to 17:10 34.93 34.93 34.93 34.93 34.93 34.92
4/8/2019 17:00 to 16:10 34.93 34.93 34.93 34.93 34.93 34.93
4/8/2019 16:00 to 15:10 34.93 34.93 34.92 34.93 34.93 34.93
4/8/2019 15:00 to 14:10 34.93 34.93 34.93 34.93 34.93 34.93
4/8/2019 14:00 to 13:10 34.93 34.93 34.93 34.93 34.93 34.93
4/8/2019 13:00 to 12:10 34.93 34.92 34.93 34.93 34.93 34.93
4/8/2019 12:00 to 11:10 34.93 34.93 34.93 34.93 34.93 34.93
4/8/2019 11:00 to 10:10 34.93 34.93 34.93 34.92 34.93 34.92
4/8/2019 10:00 to 9:10 34.92 34.92 34.93 34.92 34.93 34.92
4/8/2019 09:00 to 8:10 34.92 34.93 34.92 34.92 34.92 34.92
4/8/2019 08:00 to 7:10 34.92 34.92 34.92 34.92 34.93 34.93
4/8/2019 07:00 to 6:10 34.92 34.92 34.93 34.93 34.93 34.92
4/8/2019 06:00 to 5:10 34.93 34.93 34.93 34.93 34.93 34.93
4/8/2019 05:00 to 4:10 34.93 34.93 34.93 34.93 34.93 34.93
4/8/2019 04:00 to 3:10 34.93 34.93 34.93 34.93 34.93 34.93
4/8/2019 03:00 to 2:10 34.93 34.93 34.93 34.94 34.94 34.94
4/8/2019 02:00 to 1:10 -- -- 34.94 34.94 34.95 34.95
4/8/2019 01:00 to 0:10 34.95 34.95 34.95 34.95 34.95 34.95